sensor_id;sensor_type;location;lat;lon;timestamp;P1;durP1;ratioP1;P2;durP2;ratioP2
31848;SDS011;18414;59.352;18.152;2022-08-24T00:00:00;3.25;;;1.40;;
31848;SDS011;18414;59.352;18.152;2022-08-24T00:02:26;1.63;;;1.40;;
31848;SDS011;18414;59.352;18.152;2022-08-24T00:04:52;1.75;;;1.50;;
31848;SDS011;18414;59.352;18.152;2022-08-24T00:07:18;1.52;;;1.42;;
31848;SDS011;18414;59.352;18.152;2022-08-24T00:09:45;2.38;;;1.55;;
31848;SDS011;18414;59.352;18.152;2022-08-24T00:12:12;2.00;;;1.35;;
31848;SDS011;18414;59.352;18.152;2022-08-24T00:14:38;2.33;;;1.50;;
31848;SDS011;18414;59.352;18.152;2022-08-24T00:17:04;2.10;;;1.50;;
31848;SDS011;18414;59.352;18.152;2022-08-24T00:19:30;2.90;;;1.80;;
31848;SDS011;18414;59.352;18.152;2022-08-24T00:21:57;2.42;;;1.70;;
31848;SDS011;18414;59.352;18.152;2022-08-24T00:24:24;2.40;;;1.58;;
31848;SDS011;18414;59.352;18.152;2022-08-24T00:26:50;2.60;;;1.45;;
31848;SDS011;18414;59.352;18.152;2022-08-24T00:29:16;2.30;;;1.50;;
31848;SDS011;18414;59.352;18.152;2022-08-24T00:31:42;4.10;;;1.50;;
31848;SDS011;18414;59.352;18.152;2022-08-24T00:34:08;3.05;;;1.70;;
31848;SDS011;18414;59.352;18.152;2022-08-24T00:36:34;3.53;;;1.70;;
31848;SDS011;18414;59.352;18.152;2022-08-24T00:39:00;4.10;;;1.60;;
31848;SDS011;18414;59.352;18.152;2022-08-24T00:41:26;1.92;;;1.70;;
31848;SDS011;18414;59.352;18.152;2022-08-24T00:43:56;1.75;;;1.35;;
31848;SDS011;18414;59.352;18.152;2022-08-24T00:49:51;1.73;;;1.63;;
31848;SDS011;18414;59.352;18.152;2022-08-24T00:53:06;1.98;;;1.65;;
31848;SDS011;18414;59.352;18.152;2022-08-24T00:55:07;3.08;;;1.52;;
31848;SDS011;18414;59.352;18.152;2022-08-24T00:57:38;1.58;;;1.48;;
31848;SDS011;18414;59.352;18.152;2022-08-24T01:00:08;2.30;;;1.60;;
31848;SDS011;18414;59.352;18.152;2022-08-24T01:02:38;2.30;;;1.50;;
31848;SDS011;18414;59.352;18.152;2022-08-24T01:05:08;2.03;;;1.50;;
31848;SDS011;18414;59.352;18.152;2022-08-24T01:07:36;2.92;;;1.63;;
31848;SDS011;18414;59.352;18.152;2022-08-24T01:10:04;1.80;;;1.70;;
31848;SDS011;18414;59.352;18.152;2022-08-24T01:12:39;2.40;;;1.65;;
31848;SDS011;18414;59.352;18.152;2022-08-24T01:15:07;2.20;;;1.80;;
31848;SDS011;18414;59.352;18.152;2022-08-24T01:17:33;1.98;;;1.58;;
31848;SDS011;18414;59.352;18.152;2022-08-24T01:20:19;2.70;;;1.85;;
31848;SDS011;18414;59.352;18.152;2022-08-24T01:22:53;2.65;;;1.67;;
31848;SDS011;18414;59.352;18.152;2022-08-24T01:25:27;1.58;;;1.48;;
31848;SDS011;18414;59.352;18.152;2022-08-24T01:27:53;1.85;;;1.75;;
31848;SDS011;18414;59.352;18.152;2022-08-24T01:30:21;1.92;;;1.60;;
31848;SDS011;18414;59.352;18.152;2022-08-24T01:32:53;2.40;;;1.77;;
31848;SDS011;18414;59.352;18.152;2022-08-24T01:35:20;3.17;;;1.60;;
31848;SDS011;18414;59.352;18.152;2022-08-24T01:37:45;2.25;;;1.83;;
31848;SDS011;18414;59.352;18.152;2022-08-24T01:40:11;1.88;;;1.65;;
31848;SDS011;18414;59.352;18.152;2022-08-24T01:42:37;1.83;;;1.60;;
31848;SDS011;18414;59.352;18.152;2022-08-24T01:45:02;2.50;;;1.88;;
31848;SDS011;18414;59.352;18.152;2022-08-24T01:47:28;1.90;;;1.80;;
31848;SDS011;18414;59.352;18.152;2022-08-24T01:49:54;1.83;;;1.60;;
31848;SDS011;18414;59.352;18.152;2022-08-24T01:52:21;2.28;;;1.67;;
31848;SDS011;18414;59.352;18.152;2022-08-24T01:54:49;1.92;;;1.73;;
31848;SDS011;18414;59.352;18.152;2022-08-24T01:57:14;3.55;;;2.13;;
31848;SDS011;18414;59.352;18.152;2022-08-24T01:59:40;2.08;;;1.70;;
31848;SDS011;18414;59.352;18.152;2022-08-24T02:02:08;1.60;;;1.50;;
31848;SDS011;18414;59.352;18.152;2022-08-24T02:04:40;1.98;;;1.60;;
31848;SDS011;18414;59.352;18.152;2022-08-24T02:07:05;1.70;;;1.60;;
31848;SDS011;18414;59.352;18.152;2022-08-24T02:09:33;3.97;;;1.80;;
31848;SDS011;18414;59.352;18.152;2022-08-24T02:11:58;1.80;;;1.70;;
31848;SDS011;18414;59.352;18.152;2022-08-24T02:14:24;2.63;;;1.90;;
31848;SDS011;18414;59.352;18.152;2022-08-24T02:16:49;2.72;;;1.88;;
31848;SDS011;18414;59.352;18.152;2022-08-24T02:19:15;1.95;;;1.70;;
31848;SDS011;18414;59.352;18.152;2022-08-24T02:21:40;1.73;;;1.50;;
31848;SDS011;18414;59.352;18.152;2022-08-24T02:24:06;2.45;;;1.42;;
31848;SDS011;18414;59.352;18.152;2022-08-24T02:26:32;2.00;;;1.70;;
31848;SDS011;18414;59.352;18.152;2022-08-24T02:28:57;2.70;;;1.60;;
31848;SDS011;18414;59.352;18.152;2022-08-24T02:31:23;2.65;;;1.70;;
31848;SDS011;18414;59.352;18.152;2022-08-24T02:33:48;2.00;;;1.80;;
31848;SDS011;18414;59.352;18.152;2022-08-24T02:36:14;2.08;;;1.77;;
31848;SDS011;18414;59.352;18.152;2022-08-24T02:38:39;2.15;;;1.70;;
31848;SDS011;18414;59.352;18.152;2022-08-24T02:41:05;4.22;;;1.73;;
31848;SDS011;18414;59.352;18.152;2022-08-24T02:43:30;1.73;;;1.58;;
31848;SDS011;18414;59.352;18.152;2022-08-24T02:45:56;1.98;;;1.77;;
31848;SDS011;18414;59.352;18.152;2022-08-24T02:48:21;1.70;;;1.50;;
31848;SDS011;18414;59.352;18.152;2022-08-24T02:50:48;2.83;;;1.67;;
31848;SDS011;18414;59.352;18.152;2022-08-24T02:53:14;2.60;;;1.80;;
31848;SDS011;18414;59.352;18.152;2022-08-24T02:55:42;3.10;;;1.70;;
31848;SDS011;18414;59.352;18.152;2022-08-24T02:58:09;2.40;;;1.77;;
31848;SDS011;18414;59.352;18.152;2022-08-24T03:00:35;2.10;;;1.52;;
31848;SDS011;18414;59.352;18.152;2022-08-24T03:03:02;3.22;;;1.70;;
31848;SDS011;18414;59.352;18.152;2022-08-24T03:05:28;2.28;;;1.52;;
31848;SDS011;18414;59.352;18.152;2022-08-24T03:07:53;3.47;;;1.73;;
31848;SDS011;18414;59.352;18.152;2022-08-24T03:10:19;1.70;;;1.58;;
31848;SDS011;18414;59.352;18.152;2022-08-24T03:12:45;3.73;;;1.80;;
31848;SDS011;18414;59.352;18.152;2022-08-24T03:15:11;2.87;;;1.97;;
31848;SDS011;18414;59.352;18.152;2022-08-24T03:17:37;2.47;;;1.92;;
31848;SDS011;18414;59.352;18.152;2022-08-24T03:20:04;2.03;;;1.80;;
31848;SDS011;18414;59.352;18.152;2022-08-24T03:22:31;2.03;;;1.70;;
31848;SDS011;18414;59.352;18.152;2022-08-24T03:24:57;2.03;;;1.60;;
31848;SDS011;18414;59.352;18.152;2022-08-24T03:27:23;2.87;;;1.90;;
31848;SDS011;18414;59.352;18.152;2022-08-24T03:29:48;2.27;;;1.73;;
31848;SDS011;18414;59.352;18.152;2022-08-24T03:32:14;1.97;;;1.73;;
31848;SDS011;18414;59.352;18.152;2022-08-24T03:34:39;2.10;;;1.80;;
31848;SDS011;18414;59.352;18.152;2022-08-24T03:37:05;1.93;;;1.77;;
31848;SDS011;18414;59.352;18.152;2022-08-24T03:39:30;2.65;;;1.63;;
31848;SDS011;18414;59.352;18.152;2022-08-24T03:41:55;1.80;;;1.70;;
31848;SDS011;18414;59.352;18.152;2022-08-24T03:44:21;3.80;;;2.00;;
31848;SDS011;18414;59.352;18.152;2022-08-24T03:46:49;2.42;;;1.83;;
31848;SDS011;18414;59.352;18.152;2022-08-24T03:49:14;2.57;;;2.07;;
31848;SDS011;18414;59.352;18.152;2022-08-24T03:51:40;2.20;;;2.00;;
31848;SDS011;18414;59.352;18.152;2022-08-24T03:54:06;3.30;;;1.67;;
31848;SDS011;18414;59.352;18.152;2022-08-24T03:56:33;3.47;;;2.10;;
31848;SDS011;18414;59.352;18.152;2022-08-24T03:58:59;3.33;;;1.70;;
31848;SDS011;18414;59.352;18.152;2022-08-24T04:01:24;3.25;;;1.90;;
31848;SDS011;18414;59.352;18.152;2022-08-24T04:03:50;2.72;;;2.20;;
31848;SDS011;18414;59.352;18.152;2022-08-24T04:06:18;3.17;;;2.13;;
31848;SDS011;18414;59.352;18.152;2022-08-24T04:08:44;3.55;;;1.63;;
31848;SDS011;18414;59.352;18.152;2022-08-24T04:11:11;2.55;;;1.42;;
31848;SDS011;18414;59.352;18.152;2022-08-24T04:13:37;1.60;;;1.40;;
31848;SDS011;18414;59.352;18.152;2022-08-24T04:16:04;2.75;;;1.63;;
31848;SDS011;18414;59.352;18.152;2022-08-24T04:18:31;1.52;;;1.10;;
31848;SDS011;18414;59.352;18.152;2022-08-24T04:20:56;1.20;;;1.10;;
31848;SDS011;18414;59.352;18.152;2022-08-24T04:23:22;1.30;;;1.10;;
31848;SDS011;18414;59.352;18.152;2022-08-24T04:25:47;1.58;;;1.10;;
31848;SDS011;18414;59.352;18.152;2022-08-24T04:28:14;0.93;;;0.90;;
31848;SDS011;18414;59.352;18.152;2022-08-24T04:30:43;1.92;;;1.00;;
31848;SDS011;18414;59.352;18.152;2022-08-24T04:33:10;1.20;;;1.10;;
31848;SDS011;18414;59.352;18.152;2022-08-24T04:35:37;1.58;;;1.40;;
31848;SDS011;18414;59.352;18.152;2022-08-24T04:38:03;1.08;;;1.00;;
31848;SDS011;18414;59.352;18.152;2022-08-24T04:40:28;2.70;;;1.23;;
31848;SDS011;18414;59.352;18.152;2022-08-24T04:42:54;2.30;;;1.48;;
31848;SDS011;18414;59.352;18.152;2022-08-24T04:45:19;1.63;;;1.52;;
31848;SDS011;18414;59.352;18.152;2022-08-24T04:47:45;2.72;;;1.50;;
31848;SDS011;18414;59.352;18.152;2022-08-24T04:50:10;1.20;;;1.10;;
31848;SDS011;18414;59.352;18.152;2022-08-24T04:52:37;1.52;;;1.00;;
31848;SDS011;18414;59.352;18.152;2022-08-24T04:55:03;3.47;;;1.20;;
31848;SDS011;18414;59.352;18.152;2022-08-24T04:57:29;1.60;;;1.40;;
31848;SDS011;18414;59.352;18.152;2022-08-24T04:59:55;2.15;;;1.30;;
31848;SDS011;18414;59.352;18.152;2022-08-24T05:02:20;2.45;;;1.30;;
31848;SDS011;18414;59.352;18.152;2022-08-24T05:04:46;3.00;;;1.30;;
31848;SDS011;18414;59.352;18.152;2022-08-24T05:07:12;3.15;;;1.33;;
31848;SDS011;18414;59.352;18.152;2022-08-24T05:09:37;3.45;;;1.67;;
31848;SDS011;18414;59.352;18.152;2022-08-24T05:12:03;2.35;;;1.50;;
31848;SDS011;18414;59.352;18.152;2022-08-24T05:14:29;3.60;;;1.40;;
31848;SDS011;18414;59.352;18.152;2022-08-24T05:16:54;4.57;;;1.17;;
31848;SDS011;18414;59.352;18.152;2022-08-24T05:19:21;2.05;;;1.20;;
31848;SDS011;18414;59.352;18.152;2022-08-24T05:21:47;2.33;;;1.20;;
31848;SDS011;18414;59.352;18.152;2022-08-24T05:24:12;1.45;;;1.27;;
31848;SDS011;18414;59.352;18.152;2022-08-24T05:26:38;2.28;;;1.08;;
31848;SDS011;18414;59.352;18.152;2022-08-24T05:29:04;3.03;;;1.33;;
31848;SDS011;18414;59.352;18.152;2022-08-24T05:31:31;1.63;;;1.10;;
31848;SDS011;18414;59.352;18.152;2022-08-24T05:33:57;1.23;;;0.98;;
31848;SDS011;18414;59.352;18.152;2022-08-24T05:36:25;2.20;;;1.15;;
31848;SDS011;18414;59.352;18.152;2022-08-24T05:38:53;1.65;;;1.10;;
31848;SDS011;18414;59.352;18.152;2022-08-24T05:41:20;1.65;;;1.00;;
31848;SDS011;18414;59.352;18.152;2022-08-24T05:43:46;1.20;;;1.10;;
31848;SDS011;18414;59.352;18.152;2022-08-24T05:46:12;1.63;;;1.23;;
31848;SDS011;18414;59.352;18.152;2022-08-24T05:48:38;2.10;;;1.00;;
31848;SDS011;18414;59.352;18.152;2022-08-24T05:51:04;5.03;;;1.00;;
31848;SDS011;18414;59.352;18.152;2022-08-24T05:53:30;2.85;;;1.10;;
31848;SDS011;18414;59.352;18.152;2022-08-24T05:55:57;2.88;;;0.90;;
31848;SDS011;18414;59.352;18.152;2022-08-24T05:58:22;1.23;;;1.08;;
31848;SDS011;18414;59.352;18.152;2022-08-24T06:00:48;2.35;;;1.10;;
31848;SDS011;18414;59.352;18.152;2022-08-24T06:03:14;1.48;;;1.10;;
31848;SDS011;18414;59.352;18.152;2022-08-24T06:05:40;5.80;;;1.05;;
31848;SDS011;18414;59.352;18.152;2022-08-24T06:08:07;3.25;;;1.05;;
31848;SDS011;18414;59.352;18.152;2022-08-24T06:10:43;0.90;;;0.90;;
31848;SDS011;18414;59.352;18.152;2022-08-24T06:13:11;1.50;;;1.20;;
31848;SDS011;18414;59.352;18.152;2022-08-24T06:15:37;1.02;;;0.93;;
31848;SDS011;18414;59.352;18.152;2022-08-24T06:18:03;2.05;;;0.80;;
31848;SDS011;18414;59.352;18.152;2022-08-24T06:20:29;1.83;;;1.00;;
31848;SDS011;18414;59.352;18.152;2022-08-24T06:22:55;1.77;;;0.82;;
31848;SDS011;18414;59.352;18.152;2022-08-24T06:25:20;1.40;;;0.90;;
31848;SDS011;18414;59.352;18.152;2022-08-24T06:28:05;0.73;;;0.70;;
31848;SDS011;18414;59.352;18.152;2022-08-24T06:30:30;1.10;;;1.00;;
31848;SDS011;18414;59.352;18.152;2022-08-24T06:32:59;0.95;;;0.77;;
31848;SDS011;18414;59.352;18.152;2022-08-24T06:35:26;0.80;;;0.80;;
31848;SDS011;18414;59.352;18.152;2022-08-24T06:37:51;1.40;;;0.82;;
31848;SDS011;18414;59.352;18.152;2022-08-24T06:40:17;1.70;;;1.00;;
31848;SDS011;18414;59.352;18.152;2022-08-24T06:42:44;0.82;;;0.70;;
31848;SDS011;18414;59.352;18.152;2022-08-24T06:45:10;1.25;;;0.77;;
31848;SDS011;18414;59.352;18.152;2022-08-24T06:47:35;1.27;;;0.90;;
31848;SDS011;18414;59.352;18.152;2022-08-24T06:50:01;2.78;;;1.10;;
31848;SDS011;18414;59.352;18.152;2022-08-24T06:52:27;1.77;;;0.85;;
31848;SDS011;18414;59.352;18.152;2022-08-24T06:54:52;2.13;;;0.95;;
31848;SDS011;18414;59.352;18.152;2022-08-24T06:57:18;1.13;;;0.70;;
31848;SDS011;18414;59.352;18.152;2022-08-24T06:59:43;1.92;;;1.00;;
31848;SDS011;18414;59.352;18.152;2022-08-24T07:02:09;1.90;;;0.80;;
31848;SDS011;18414;59.352;18.152;2022-08-24T07:04:36;2.83;;;0.77;;
31848;SDS011;18414;59.352;18.152;2022-08-24T07:07:02;1.90;;;0.80;;
31848;SDS011;18414;59.352;18.152;2022-08-24T07:09:29;1.98;;;0.80;;
31848;SDS011;18414;59.352;18.152;2022-08-24T07:11:55;1.60;;;0.70;;
31848;SDS011;18414;59.352;18.152;2022-08-24T07:14:21;0.90;;;0.68;;
31848;SDS011;18414;59.352;18.152;2022-08-24T07:16:46;0.93;;;0.75;;
31848;SDS011;18414;59.352;18.152;2022-08-24T07:19:12;1.48;;;0.85;;
31848;SDS011;18414;59.352;18.152;2022-08-24T07:21:37;0.77;;;0.63;;
31848;SDS011;18414;59.352;18.152;2022-08-24T07:24:03;0.80;;;0.70;;
31848;SDS011;18414;59.352;18.152;2022-08-24T07:26:29;3.15;;;0.80;;
31848;SDS011;18414;59.352;18.152;2022-08-24T07:28:56;3.13;;;0.98;;
31848;SDS011;18414;59.352;18.152;2022-08-24T07:31:28;3.00;;;0.98;;
31848;SDS011;18414;59.352;18.152;2022-08-24T07:33:54;1.15;;;0.70;;
31848;SDS011;18414;59.352;18.152;2022-08-24T07:36:19;3.45;;;2.50;;
31848;SDS011;18414;59.352;18.152;2022-08-24T07:38:44;1.55;;;0.70;;
31848;SDS011;18414;59.352;18.152;2022-08-24T07:41:10;1.40;;;1.00;;
31848;SDS011;18414;59.352;18.152;2022-08-24T07:43:38;4.05;;;0.95;;
31848;SDS011;18414;59.352;18.152;2022-08-24T07:46:05;1.48;;;0.60;;
31848;SDS011;18414;59.352;18.152;2022-08-24T07:48:33;2.50;;;0.95;;
31848;SDS011;18414;59.352;18.152;2022-08-24T07:51:05;0.88;;;0.75;;
31848;SDS011;18414;59.352;18.152;2022-08-24T07:53:34;2.22;;;0.80;;
31848;SDS011;18414;59.352;18.152;2022-08-24T07:55:59;2.28;;;0.95;;
31848;SDS011;18414;59.352;18.152;2022-08-24T07:58:25;3.28;;;0.80;;
31848;SDS011;18414;59.352;18.152;2022-08-24T08:00:50;1.50;;;0.90;;
31848;SDS011;18414;59.352;18.152;2022-08-24T08:03:16;2.78;;;1.00;;
31848;SDS011;18414;59.352;18.152;2022-08-24T08:05:42;1.20;;;0.88;;
31848;SDS011;18414;59.352;18.152;2022-08-24T08:08:07;2.08;;;0.88;;
31848;SDS011;18414;59.352;18.152;2022-08-24T08:10:33;1.27;;;0.77;;
31848;SDS011;18414;59.352;18.152;2022-08-24T08:13:03;1.45;;;0.82;;
31848;SDS011;18414;59.352;18.152;2022-08-24T08:15:29;0.80;;;0.70;;
31848;SDS011;18414;59.352;18.152;2022-08-24T08:17:55;1.08;;;0.68;;
31848;SDS011;18414;59.352;18.152;2022-08-24T08:20:21;0.68;;;0.63;;
31848;SDS011;18414;59.352;18.152;2022-08-24T08:22:47;1.13;;;0.63;;
31848;SDS011;18414;59.352;18.152;2022-08-24T08:25:32;2.10;;;0.68;;
31848;SDS011;18414;59.352;18.152;2022-08-24T08:27:58;1.83;;;0.90;;
31848;SDS011;18414;59.352;18.152;2022-08-24T08:30:24;1.50;;;0.80;;
31848;SDS011;18414;59.352;18.152;2022-08-24T08:32:49;3.83;;;1.00;;
31848;SDS011;18414;59.352;18.152;2022-08-24T08:35:14;3.08;;;1.02;;
31848;SDS011;18414;59.352;18.152;2022-08-24T08:37:40;0.80;;;0.70;;
31848;SDS011;18414;59.352;18.152;2022-08-24T08:40:06;1.42;;;0.63;;
31848;SDS011;18414;59.352;18.152;2022-08-24T08:42:54;2.20;;;0.80;;
31848;SDS011;18414;59.352;18.152;2022-08-24T08:48:41;0.98;;;0.77;;
31848;SDS011;18414;59.352;18.152;2022-08-24T09:08:05;1.48;;;0.80;;
31848;SDS011;18414;59.352;18.152;2022-08-24T09:10:41;2.20;;;0.90;;
31848;SDS011;18414;59.352;18.152;2022-08-24T09:13:16;2.03;;;0.68;;
31848;SDS011;18414;59.352;18.152;2022-08-24T09:16:17;1.15;;;0.80;;
31848;SDS011;18414;59.352;18.152;2022-08-24T09:27:32;1.15;;;0.70;;
31848;SDS011;18414;59.352;18.152;2022-08-24T09:30:11;1.25;;;0.80;;
31848;SDS011;18414;59.352;18.152;2022-08-24T09:32:59;1.52;;;0.75;;
31848;SDS011;18414;59.352;18.152;2022-08-24T09:38:21;3.22;;;0.80;;
31848;SDS011;18414;59.352;18.152;2022-08-24T09:46:26;1.33;;;0.70;;
31848;SDS011;18414;59.352;18.152;2022-08-24T09:52:00;0.82;;;0.63;;
31848;SDS011;18414;59.352;18.152;2022-08-24T10:00:30;2.28;;;0.80;;
31848;SDS011;18414;59.352;18.152;2022-08-24T10:03:02;1.77;;;0.90;;
31848;SDS011;18414;59.352;18.152;2022-08-24T10:05:55;2.15;;;0.70;;
31848;SDS011;18414;59.352;18.152;2022-08-24T10:44:40;1.08;;;0.70;;
31848;SDS011;18414;59.352;18.152;2022-08-24T10:47:27;2.45;;;0.70;;
31848;SDS011;18414;59.352;18.152;2022-08-24T10:55:37;2.30;;;0.70;;
31848;SDS011;18414;59.352;18.152;2022-08-24T11:00:34;2.33;;;0.90;;
31848;SDS011;18414;59.352;18.152;2022-08-24T11:05:44;0.95;;;0.80;;
31848;SDS011;18414;59.352;18.152;2022-08-24T11:08:26;2.03;;;0.70;;
31848;SDS011;18414;59.352;18.152;2022-08-24T11:13:30;2.05;;;0.73;;
31848;SDS011;18414;59.352;18.152;2022-08-24T11:15:58;1.02;;;0.80;;
31848;SDS011;18414;59.352;18.152;2022-08-24T11:18:25;1.35;;;0.80;;
31848;SDS011;18414;59.352;18.152;2022-08-24T11:21:30;0.98;;;0.80;;
31848;SDS011;18414;59.352;18.152;2022-08-24T11:27:05;1.15;;;0.60;;
31848;SDS011;18414;59.352;18.152;2022-08-24T11:35:48;0.73;;;0.65;;
31848;SDS011;18414;59.352;18.152;2022-08-24T11:37:52;2.70;;;0.75;;
31848;SDS011;18414;59.352;18.152;2022-08-24T11:40:26;3.78;;;0.88;;
31848;SDS011;18414;59.352;18.152;2022-08-24T11:43:10;2.50;;;0.73;;
31848;SDS011;18414;59.352;18.152;2022-08-24T11:48:51;1.17;;;0.80;;
31848;SDS011;18414;59.352;18.152;2022-08-24T11:51:45;0.70;;;0.70;;
31848;SDS011;18414;59.352;18.152;2022-08-24T11:54:32;2.05;;;1.10;;
31848;SDS011;18414;59.352;18.152;2022-08-24T11:57:24;1.00;;;0.90;;
31848;SDS011;18414;59.352;18.152;2022-08-24T12:02:33;2.00;;;0.88;;
31848;SDS011;18414;59.352;18.152;2022-08-24T12:13:03;3.03;;;1.30;;
31848;SDS011;18414;59.352;18.152;2022-08-24T12:15:47;4.50;;;1.50;;
31848;SDS011;18414;59.352;18.152;2022-08-24T12:21:05;2.70;;;1.10;;
31848;SDS011;18414;59.352;18.152;2022-08-24T12:23:35;0.80;;;0.80;;
31848;SDS011;18414;59.352;18.152;2022-08-24T12:26:04;4.10;;;0.98;;
31848;SDS011;18414;59.352;18.152;2022-08-24T12:28:41;1.55;;;0.90;;
31848;SDS011;18414;59.352;18.152;2022-08-24T12:31:18;0.80;;;0.70;;
31848;SDS011;18414;59.352;18.152;2022-08-24T12:33:47;2.53;;;0.70;;
31848;SDS011;18414;59.352;18.152;2022-08-24T12:36:27;2.05;;;0.88;;
31848;SDS011;18414;59.352;18.152;2022-08-24T12:39:39;1.80;;;0.88;;
31848;SDS011;18414;59.352;18.152;2022-08-24T12:41:56;1.40;;;0.93;;
31848;SDS011;18414;59.352;18.152;2022-08-24T12:44:30;2.42;;;1.13;;
31848;SDS011;18414;59.352;18.152;2022-08-24T12:47:03;1.00;;;0.90;;
31848;SDS011;18414;59.352;18.152;2022-08-24T12:49:30;1.83;;;0.90;;
31848;SDS011;18414;59.352;18.152;2022-08-24T12:52:18;1.35;;;0.93;;
31848;SDS011;18414;59.352;18.152;2022-08-24T13:00:05;1.95;;;0.88;;
31848;SDS011;18414;59.352;18.152;2022-08-24T13:02:40;2.25;;;0.90;;
31848;SDS011;18414;59.352;18.152;2022-08-24T13:05:13;0.80;;;0.80;;
31848;SDS011;18414;59.352;18.152;2022-08-24T13:07:44;1.77;;;0.80;;
31848;SDS011;18414;59.352;18.152;2022-08-24T13:10:34;3.53;;;0.85;;
31848;SDS011;18414;59.352;18.152;2022-08-24T13:23:20;1.27;;;0.73;;
31848;SDS011;18414;59.352;18.152;2022-08-24T13:33:25;2.47;;;0.80;;
31848;SDS011;18414;59.352;18.152;2022-08-24T13:35:59;1.80;;;0.90;;
31848;SDS011;18414;59.352;18.152;2022-08-24T13:44:35;1.40;;;0.90;;
31848;SDS011;18414;59.352;18.152;2022-08-24T13:47:17;2.30;;;0.75;;
31848;SDS011;18414;59.352;18.152;2022-08-24T13:52:55;1.05;;;0.95;;
31848;SDS011;18414;59.352;18.152;2022-08-24T13:55:49;1.42;;;0.98;;
31848;SDS011;18414;59.352;18.152;2022-08-24T13:58:37;0.70;;;0.70;;
31848;SDS011;18414;59.352;18.152;2022-08-24T14:09:51;1.70;;;0.90;;
31848;SDS011;18414;59.352;18.152;2022-08-24T14:23:18;3.80;;;1.00;;
31848;SDS011;18414;59.352;18.152;2022-08-24T14:25:49;1.15;;;0.75;;
31848;SDS011;18414;59.352;18.152;2022-08-24T14:31:14;0.68;;;0.68;;
31848;SDS011;18414;59.352;18.152;2022-08-24T14:34:08;1.13;;;0.60;;
31848;SDS011;18414;59.352;18.152;2022-08-24T14:37:02;1.58;;;0.70;;
31848;SDS011;18414;59.352;18.152;2022-08-24T14:39:44;2.10;;;0.80;;
31848;SDS011;18414;59.352;18.152;2022-08-24T14:47:25;0.82;;;0.60;;
31848;SDS011;18414;59.352;18.152;2022-08-24T14:50:16;0.85;;;0.60;;
31848;SDS011;18414;59.352;18.152;2022-08-24T14:52:59;1.23;;;0.50;;
31848;SDS011;18414;59.352;18.152;2022-08-24T14:58:23;0.70;;;0.70;;
31848;SDS011;18414;59.352;18.152;2022-08-24T15:01:02;1.02;;;0.68;;
31848;SDS011;18414;59.352;18.152;2022-08-24T15:04:13;1.45;;;0.60;;
31848;SDS011;18414;59.352;18.152;2022-08-24T15:06:48;0.55;;;0.50;;
31848;SDS011;18414;59.352;18.152;2022-08-24T15:11:53;2.47;;;0.70;;
31848;SDS011;18414;59.352;18.152;2022-08-24T15:17:08;1.42;;;0.70;;
31848;SDS011;18414;59.352;18.152;2022-08-24T15:19:48;1.40;;;0.68;;
31848;SDS011;18414;59.352;18.152;2022-08-24T15:25:12;1.20;;;0.60;;
31848;SDS011;18414;59.352;18.152;2022-08-24T15:27:53;2.65;;;0.80;;
31848;SDS011;18414;59.352;18.152;2022-08-24T15:30:26;1.58;;;0.60;;
31848;SDS011;18414;59.352;18.152;2022-08-24T15:33:10;2.00;;;0.50;;
31848;SDS011;18414;59.352;18.152;2022-08-24T15:35:41;1.02;;;0.60;;
31848;SDS011;18414;59.352;18.152;2022-08-24T15:38:29;1.00;;;0.60;;
31848;SDS011;18414;59.352;18.152;2022-08-24T15:46:16;0.70;;;0.60;;
31848;SDS011;18414;59.352;18.152;2022-08-24T15:48:43;1.17;;;0.50;;
31848;SDS011;18414;59.352;18.152;2022-08-24T15:51:13;0.98;;;0.70;;
31848;SDS011;18414;59.352;18.152;2022-08-24T15:53:55;0.77;;;0.60;;
31848;SDS011;18414;59.352;18.152;2022-08-24T15:56:30;3.33;;;0.60;;
31848;SDS011;18414;59.352;18.152;2022-08-24T15:59:07;1.98;;;0.60;;
31848;SDS011;18414;59.352;18.152;2022-08-24T16:01:34;0.95;;;0.60;;
31848;SDS011;18414;59.352;18.152;2022-08-24T16:04:57;0.60;;;0.60;;
31848;SDS011;18414;59.352;18.152;2022-08-24T16:07:13;0.50;;;0.40;;
31848;SDS011;18414;59.352;18.152;2022-08-24T16:09:40;0.55;;;0.50;;
31848;SDS011;18414;59.352;18.152;2022-08-24T16:12:21;1.15;;;0.77;;
31848;SDS011;18414;59.352;18.152;2022-08-24T16:14:47;1.25;;;0.70;;
31848;SDS011;18414;59.352;18.152;2022-08-24T16:19:55;1.13;;;0.55;;
31848;SDS011;18414;59.352;18.152;2022-08-24T16:22:30;3.17;;;0.60;;
31848;SDS011;18414;59.352;18.152;2022-08-24T16:30:48;0.85;;;0.63;;
31848;SDS011;18414;59.352;18.152;2022-08-24T16:35:55;0.77;;;0.70;;
31848;SDS011;18414;59.352;18.152;2022-08-24T16:38:22;2.95;;;0.68;;
31848;SDS011;18414;59.352;18.152;2022-08-24T16:40:50;1.15;;;0.55;;
31848;SDS011;18414;59.352;18.152;2022-08-24T16:43:15;0.70;;;0.50;;
31848;SDS011;18414;59.352;18.152;2022-08-24T16:45:41;0.57;;;0.57;;
31848;SDS011;18414;59.352;18.152;2022-08-24T16:48:07;0.93;;;0.70;;
31848;SDS011;18414;59.352;18.152;2022-08-24T16:50:34;1.58;;;0.70;;
31848;SDS011;18414;59.352;18.152;2022-08-24T16:52:59;0.60;;;0.60;;
31848;SDS011;18414;59.352;18.152;2022-08-24T16:55:25;2.53;;;0.57;;
31848;SDS011;18414;59.352;18.152;2022-08-24T16:57:52;2.35;;;0.65;;
31848;SDS011;18414;59.352;18.152;2022-08-24T17:00:19;0.68;;;0.50;;
31848;SDS011;18414;59.352;18.152;2022-08-24T17:02:46;0.88;;;0.50;;
31848;SDS011;18414;59.352;18.152;2022-08-24T17:05:13;0.90;;;0.60;;
31848;SDS011;18414;59.352;18.152;2022-08-24T17:07:39;1.50;;;0.57;;
31848;SDS011;18414;59.352;18.152;2022-08-24T17:10:06;0.90;;;0.70;;
31848;SDS011;18414;59.352;18.152;2022-08-24T17:12:33;0.68;;;0.65;;
31848;SDS011;18414;59.352;18.152;2022-08-24T17:15:00;2.40;;;0.90;;
31848;SDS011;18414;59.352;18.152;2022-08-24T17:17:28;1.00;;;0.60;;
31848;SDS011;18414;59.352;18.152;2022-08-24T17:19:54;0.85;;;0.50;;
31848;SDS011;18414;59.352;18.152;2022-08-24T17:22:20;0.52;;;0.43;;
31848;SDS011;18414;59.352;18.152;2022-08-24T17:24:47;0.70;;;0.60;;
31848;SDS011;18414;59.352;18.152;2022-08-24T17:27:12;0.57;;;0.50;;
31848;SDS011;18414;59.352;18.152;2022-08-24T17:29:38;1.17;;;0.60;;
31848;SDS011;18414;59.352;18.152;2022-08-24T17:32:04;1.13;;;0.70;;
31848;SDS011;18414;59.352;18.152;2022-08-24T17:34:30;1.35;;;0.77;;
31848;SDS011;18414;59.352;18.152;2022-08-24T17:36:56;1.50;;;1.10;;
31848;SDS011;18414;59.352;18.152;2022-08-24T17:39:22;1.25;;;0.60;;
31848;SDS011;18414;59.352;18.152;2022-08-24T17:41:50;1.10;;;0.93;;
31848;SDS011;18414;59.352;18.152;2022-08-24T17:44:18;0.80;;;0.80;;
31848;SDS011;18414;59.352;18.152;2022-08-24T17:46:49;1.10;;;1.00;;
31848;SDS011;18414;59.352;18.152;2022-08-24T17:49:15;0.93;;;0.90;;
31848;SDS011;18414;59.352;18.152;2022-08-24T17:51:40;2.30;;;1.30;;
31848;SDS011;18414;59.352;18.152;2022-08-24T17:54:06;1.17;;;1.00;;
31848;SDS011;18414;59.352;18.152;2022-08-24T17:56:31;0.70;;;0.70;;
31848;SDS011;18414;59.352;18.152;2022-08-24T17:59:11;4.15;;;0.90;;
31848;SDS011;18414;59.352;18.152;2022-08-24T18:01:43;2.00;;;0.88;;
31848;SDS011;18414;59.352;18.152;2022-08-24T18:04:10;2.47;;;0.77;;
31848;SDS011;18414;59.352;18.152;2022-08-24T18:06:35;1.63;;;0.70;;
31848;SDS011;18414;59.352;18.152;2022-08-24T18:09:02;1.33;;;0.70;;
31848;SDS011;18414;59.352;18.152;2022-08-24T18:11:30;2.45;;;0.90;;
31848;SDS011;18414;59.352;18.152;2022-08-24T18:13:55;0.82;;;0.70;;
31848;SDS011;18414;59.352;18.152;2022-08-24T18:16:21;1.58;;;0.85;;
31848;SDS011;18414;59.352;18.152;2022-08-24T18:18:49;1.10;;;0.80;;